Terminal Aerodrome Forecast
Issued by NWS Sioux Falls, SD

Home | Current Version | Previous Version | Graphics & Text | Print | Product List | Glossary On
Versions: 1 2 3 4 5 6 7 8 9 10 11 12 13 14 15 16 17 18 19 20
000
FTUS43 KFSD 211520 AAA
TAFFSD
TAF AMD
KFSD 211520Z 2115/2212 17010KT 1/4SM FG VV002
     FM211700 17011KT 1/2SM FG OVC003
     FM211800 16010KT 2SM BR OVC003
     FM212000 16014G21KT 5SM BR OVC008
     FM220200 17014G22KT 2SM BR OVC005
     FM220600 17013KT 4SM -RA OVC010=

USA.gov is the U.S. government's official web portal to all federal, state and local government web resources and services.